sensor_id;sensor_type;location;lat;lon;timestamp;P1;durP1;ratioP1;P2;durP2;ratioP2
64938;SDS011;51453;47.738;7.420;2022-11-18T00:02:08;2.88;;;0.50;;
64938;SDS011;51453;47.738;7.420;2022-11-18T00:04:33;3.20;;;0.60;;
64938;SDS011;51453;47.738;7.420;2022-11-18T00:06:59;1.75;;;0.68;;
64938;SDS011;51453;47.738;7.420;2022-11-18T00:09:24;1.90;;;0.40;;
64938;SDS011;51453;47.738;7.420;2022-11-18T00:11:50;2.05;;;0.47;;
64938;SDS011;51453;47.738;7.420;2022-11-18T00:14:34;2.03;;;0.50;;
64938;SDS011;51453;47.738;7.420;2022-11-18T00:17:00;2.38;;;0.60;;
64938;SDS011;51453;47.738;7.420;2022-11-18T00:19:46;1.08;;;0.40;;
64938;SDS011;51453;47.738;7.420;2022-11-18T00:22:11;1.77;;;0.40;;
64938;SDS011;51453;47.738;7.420;2022-11-18T00:24:38;2.15;;;0.50;;
64938;SDS011;51453;47.738;7.420;2022-11-18T00:27:04;2.00;;;0.30;;
64938;SDS011;51453;47.738;7.420;2022-11-18T00:29:29;1.10;;;0.60;;
64938;SDS011;51453;47.738;7.420;2022-11-18T00:31:56;3.97;;;1.08;;
64938;SDS011;51453;47.738;7.420;2022-11-18T00:34:22;2.70;;;0.70;;
64938;SDS011;51453;47.738;7.420;2022-11-18T00:36:48;3.42;;;1.52;;
64938;SDS011;51453;47.738;7.420;2022-11-18T00:39:15;1.27;;;0.75;;
64938;SDS011;51453;47.738;7.420;2022-11-18T00:41:42;1.83;;;0.70;;
64938;SDS011;51453;47.738;7.420;2022-11-18T00:44:27;1.92;;;0.90;;
64938;SDS011;51453;47.738;7.420;2022-11-18T00:46:53;2.78;;;0.88;;
64938;SDS011;51453;47.738;7.420;2022-11-18T00:49:19;1.05;;;0.50;;
64938;SDS011;51453;47.738;7.420;2022-11-18T00:51:44;2.03;;;0.43;;
64938;SDS011;51453;47.738;7.420;2022-11-18T00:54:10;0.68;;;0.30;;
64938;SDS011;51453;47.738;7.420;2022-11-18T00:56:36;1.20;;;0.50;;
64938;SDS011;51453;47.738;7.420;2022-11-18T00:59:02;1.20;;;0.50;;
64938;SDS011;51453;47.738;7.420;2022-11-18T01:01:27;1.05;;;0.50;;
64938;SDS011;51453;47.738;7.420;2022-11-18T01:03:53;4.38;;;0.40;;
64938;SDS011;51453;47.738;7.420;2022-11-18T01:06:19;2.03;;;0.90;;
64938;SDS011;51453;47.738;7.420;2022-11-18T01:08:45;1.55;;;0.38;;
64938;SDS011;51453;47.738;7.420;2022-11-18T01:11:10;2.75;;;0.40;;
64938;SDS011;51453;47.738;7.420;2022-11-18T01:13:54;0.52;;;0.30;;
64938;SDS011;51453;47.738;7.420;2022-11-18T01:16:21;0.95;;;0.60;;
64938;SDS011;51453;47.738;7.420;2022-11-18T01:18:47;1.25;;;0.50;;
64938;SDS011;51453;47.738;7.420;2022-11-18T01:21:13;1.42;;;0.50;;
64938;SDS011;51453;47.738;7.420;2022-11-18T01:23:39;4.07;;;0.70;;
64938;SDS011;51453;47.738;7.420;2022-11-18T01:26:06;1.95;;;0.43;;
64938;SDS011;51453;47.738;7.420;2022-11-18T01:28:33;0.65;;;0.30;;
64938;SDS011;51453;47.738;7.420;2022-11-18T01:31:07;3.17;;;0.40;;
64938;SDS011;51453;47.738;7.420;2022-11-18T01:33:37;2.78;;;0.50;;
64938;SDS011;51453;47.738;7.420;2022-11-18T01:36:03;3.45;;;0.80;;
64938;SDS011;51453;47.738;7.420;2022-11-18T01:38:29;2.63;;;0.60;;
64938;SDS011;51453;47.738;7.420;2022-11-18T01:40:55;0.63;;;0.60;;
64938;SDS011;51453;47.738;7.420;2022-11-18T01:43:21;2.22;;;0.70;;
64938;SDS011;51453;47.738;7.420;2022-11-18T01:45:48;4.65;;;0.43;;
64938;SDS011;51453;47.738;7.420;2022-11-18T01:48:22;1.92;;;0.40;;
64938;SDS011;51453;47.738;7.420;2022-11-18T01:50:59;1.30;;;0.52;;
64938;SDS011;51453;47.738;7.420;2022-11-18T01:53:32;2.72;;;0.40;;
64938;SDS011;51453;47.738;7.420;2022-11-18T01:56:03;1.48;;;0.60;;
64938;SDS011;51453;47.738;7.420;2022-11-18T01:58:42;1.58;;;0.30;;
64938;SDS011;51453;47.738;7.420;2022-11-18T02:01:35;2.00;;;0.50;;
64938;SDS011;51453;47.738;7.420;2022-11-18T02:04:01;4.18;;;0.70;;
64938;SDS011;51453;47.738;7.420;2022-11-18T02:06:27;4.18;;;0.50;;
64938;SDS011;51453;47.738;7.420;2022-11-18T02:08:53;1.35;;;0.40;;
64938;SDS011;51453;47.738;7.420;2022-11-18T02:11:20;2.75;;;0.50;;
64938;SDS011;51453;47.738;7.420;2022-11-18T02:14:05;0.52;;;0.30;;
64938;SDS011;51453;47.738;7.420;2022-11-18T02:30:15;2.10;;;0.28;;
64938;SDS011;51453;47.738;7.420;2022-11-18T02:32:47;0.50;;;0.20;;
64938;SDS011;51453;47.738;7.420;2022-11-18T02:35:28;1.27;;;0.35;;
64938;SDS011;51453;47.738;7.420;2022-11-18T02:38:01;0.95;;;0.32;;
64938;SDS011;51453;47.738;7.420;2022-11-18T02:40:34;2.33;;;0.30;;
64938;SDS011;51453;47.738;7.420;2022-11-18T02:43:12;0.93;;;0.30;;
64938;SDS011;51453;47.738;7.420;2022-11-18T02:45:43;0.50;;;0.40;;
64938;SDS011;51453;47.738;7.420;2022-11-18T02:48:12;0.90;;;0.22;;
64938;SDS011;51453;47.738;7.420;2022-11-18T02:50:41;0.95;;;0.35;;
64938;SDS011;51453;47.738;7.420;2022-11-18T02:53:09;0.95;;;0.30;;
64938;SDS011;51453;47.738;7.420;2022-11-18T02:55:37;1.38;;;0.43;;
64938;SDS011;51453;47.738;7.420;2022-11-18T02:58:05;1.15;;;0.20;;
64938;SDS011;51453;47.738;7.420;2022-11-18T03:00:32;1.08;;;0.20;;
64938;SDS011;51453;47.738;7.420;2022-11-18T03:03:00;1.88;;;0.20;;
64938;SDS011;51453;47.738;7.420;2022-11-18T03:22:47;0.85;;;0.40;;
64938;SDS011;51453;47.738;7.420;2022-11-18T03:25:27;1.73;;;0.60;;
64938;SDS011;51453;47.738;7.420;2022-11-18T03:30:33;0.40;;;0.40;;
64938;SDS011;51453;47.738;7.420;2022-11-18T03:33:04;1.98;;;0.30;;
64938;SDS011;51453;47.738;7.420;2022-11-18T03:35:38;0.30;;;0.30;;
64938;SDS011;51453;47.738;7.420;2022-11-18T03:38:12;1.30;;;0.40;;
64938;SDS011;51453;47.738;7.420;2022-11-18T03:40:41;0.52;;;0.28;;
64938;SDS011;51453;47.738;7.420;2022-11-18T03:43:16;2.70;;;0.30;;
64938;SDS011;51453;47.738;7.420;2022-11-18T03:45:47;1.98;;;0.30;;
64938;SDS011;51453;47.738;7.420;2022-11-18T03:48:17;0.60;;;0.20;;
64938;SDS011;51453;47.738;7.420;2022-11-18T03:51:04;2.58;;;0.28;;
64938;SDS011;51453;47.738;7.420;2022-11-18T03:53:35;3.22;;;0.32;;
64938;SDS011;51453;47.738;7.420;2022-11-18T03:56:07;1.25;;;0.10;;
64938;SDS011;51453;47.738;7.420;2022-11-18T03:58:52;2.08;;;0.30;;
64938;SDS011;51453;47.738;7.420;2022-11-18T04:01:32;0.57;;;0.20;;
64938;SDS011;51453;47.738;7.420;2022-11-18T04:04:04;1.83;;;0.30;;
64938;SDS011;51453;47.738;7.420;2022-11-18T04:06:41;0.20;;;0.10;;
64938;SDS011;51453;47.738;7.420;2022-11-18T04:09:17;0.35;;;0.17;;
64938;SDS011;51453;47.738;7.420;2022-11-18T04:11:53;1.92;;;0.22;;
64938;SDS011;51453;47.738;7.420;2022-11-18T04:14:27;0.90;;;0.20;;
64938;SDS011;51453;47.738;7.420;2022-11-18T04:17:19;0.30;;;0.10;;
64938;SDS011;51453;47.738;7.420;2022-11-18T04:19:46;0.20;;;0.20;;
64938;SDS011;51453;47.738;7.420;2022-11-18T04:22:12;0.55;;;0.10;;
64938;SDS011;51453;47.738;7.420;2022-11-18T04:24:39;0.20;;;0.10;;
64938;SDS011;51453;47.738;7.420;2022-11-18T04:27:05;0.40;;;0.10;;
64938;SDS011;51453;47.738;7.420;2022-11-18T04:29:31;0.10;;;0.10;;
64938;SDS011;51453;47.738;7.420;2022-11-18T04:31:58;1.08;;;0.10;;
64938;SDS011;51453;47.738;7.420;2022-11-18T04:34:24;0.08;;;0.08;;
64938;SDS011;51453;47.738;7.420;2022-11-18T04:36:50;1.75;;;0.10;;
64938;SDS011;51453;47.738;7.420;2022-11-18T04:39:16;0.20;;;0.20;;
64938;SDS011;51453;47.738;7.420;2022-11-18T04:41:44;0.10;;;0.10;;
64938;SDS011;51453;47.738;7.420;2022-11-18T04:44:23;2.35;;;0.20;;
64938;SDS011;51453;47.738;7.420;2022-11-18T04:46:50;1.52;;;0.17;;
64938;SDS011;51453;47.738;7.420;2022-11-18T04:49:16;0.63;;;0.20;;
64938;SDS011;51453;47.738;7.420;2022-11-18T04:51:42;0.20;;;0.20;;
64938;SDS011;51453;47.738;7.420;2022-11-18T04:54:09;0.17;;;0.05;;
64938;SDS011;51453;47.738;7.420;2022-11-18T04:56:35;0.10;;;0.10;;
64938;SDS011;51453;47.738;7.420;2022-11-18T04:59:01;0.10;;;0.10;;
64938;SDS011;51453;47.738;7.420;2022-11-18T05:01:28;0.65;;;0.10;;
64938;SDS011;51453;47.738;7.420;2022-11-18T05:03:54;0.10;;;0.10;;
64938;SDS011;51453;47.738;7.420;2022-11-18T05:06:20;0.35;;;0.10;;
64938;SDS011;51453;47.738;7.420;2022-11-18T05:08:47;0.70;;;0.10;;
64938;SDS011;51453;47.738;7.420;2022-11-18T05:11:13;0.57;;;0.20;;
64938;SDS011;51453;47.738;7.420;2022-11-18T05:13:57;0.28;;;0.20;;
64938;SDS011;51453;47.738;7.420;2022-11-18T05:16:23;0.15;;;0.10;;
64938;SDS011;51453;47.738;7.420;2022-11-18T05:18:49;0.47;;;0.10;;
64938;SDS011;51453;47.738;7.420;2022-11-18T05:21:14;0.93;;;0.35;;
64938;SDS011;51453;47.738;7.420;2022-11-18T05:23:40;4.78;;;0.10;;
64938;SDS011;51453;47.738;7.420;2022-11-18T05:26:06;0.60;;;0.30;;
64938;SDS011;51453;47.738;7.420;2022-11-18T05:28:33;4.90;;;0.20;;
64938;SDS011;51453;47.738;7.420;2022-11-18T05:30:59;0.90;;;0.20;;
64938;SDS011;51453;47.738;7.420;2022-11-18T05:35:56;0.25;;;0.17;;
64938;SDS011;51453;47.738;7.420;2022-11-18T05:38:21;0.25;;;0.10;;
64938;SDS011;51453;47.738;7.420;2022-11-18T05:40:47;0.55;;;0.20;;
64938;SDS011;51453;47.738;7.420;2022-11-18T05:43:12;0.30;;;0.28;;
64938;SDS011;51453;47.738;7.420;2022-11-18T05:45:38;0.38;;;0.20;;
64938;SDS011;51453;47.738;7.420;2022-11-18T05:48:05;0.45;;;0.20;;
64938;SDS011;51453;47.738;7.420;2022-11-18T05:50:36;0.40;;;0.30;;
64938;SDS011;51453;47.738;7.420;2022-11-18T05:53:02;1.75;;;0.43;;
64938;SDS011;51453;47.738;7.420;2022-11-18T05:55:30;0.45;;;0.30;;
64938;SDS011;51453;47.738;7.420;2022-11-18T05:58:08;0.20;;;0.20;;
64938;SDS011;51453;47.738;7.420;2022-11-18T06:00:34;1.23;;;0.70;;
64938;SDS011;51453;47.738;7.420;2022-11-18T06:03:00;2.30;;;0.52;;
64938;SDS011;51453;47.738;7.420;2022-11-18T06:05:28;1.60;;;0.32;;
64938;SDS011;51453;47.738;7.420;2022-11-18T06:07:54;1.58;;;0.30;;
64938;SDS011;51453;47.738;7.420;2022-11-18T06:10:31;2.33;;;0.40;;
64938;SDS011;51453;47.738;7.420;2022-11-18T06:13:02;0.77;;;0.43;;
64938;SDS011;51453;47.738;7.420;2022-11-18T06:18:11;1.75;;;0.40;;
64938;SDS011;51453;47.738;7.420;2022-11-18T06:20:44;1.88;;;0.40;;
64938;SDS011;51453;47.738;7.420;2022-11-18T06:23:10;3.70;;;0.82;;
64938;SDS011;51453;47.738;7.420;2022-11-18T06:25:37;1.88;;;0.50;;
64938;SDS011;51453;47.738;7.420;2022-11-18T06:28:04;2.30;;;0.60;;
64938;SDS011;51453;47.738;7.420;2022-11-18T06:30:31;2.15;;;0.50;;
64938;SDS011;51453;47.738;7.420;2022-11-18T06:32:56;1.70;;;0.60;;
64938;SDS011;51453;47.738;7.420;2022-11-18T06:35:22;0.40;;;0.40;;
64938;SDS011;51453;47.738;7.420;2022-11-18T06:37:48;1.75;;;0.88;;
64938;SDS011;51453;47.738;7.420;2022-11-18T06:40:13;0.47;;;0.47;;
64938;SDS011;51453;47.738;7.420;2022-11-18T06:42:39;1.85;;;0.70;;
64938;SDS011;51453;47.738;7.420;2022-11-18T06:45:23;2.47;;;0.90;;
64938;SDS011;51453;47.738;7.420;2022-11-18T06:47:49;1.33;;;0.60;;
64938;SDS011;51453;47.738;7.420;2022-11-18T06:50:15;1.85;;;0.60;;
64938;SDS011;51453;47.738;7.420;2022-11-18T06:52:40;1.70;;;0.70;;
64938;SDS011;51453;47.738;7.420;2022-11-18T06:55:06;1.33;;;1.10;;
64938;SDS011;51453;47.738;7.420;2022-11-18T06:57:33;2.33;;;1.35;;
64938;SDS011;51453;47.738;7.420;2022-11-18T06:59:59;4.15;;;1.40;;
64938;SDS011;51453;47.738;7.420;2022-11-18T07:02:24;4.18;;;1.52;;
64938;SDS011;51453;47.738;7.420;2022-11-18T07:04:50;3.42;;;0.88;;
64938;SDS011;51453;47.738;7.420;2022-11-18T07:07:16;0.90;;;0.70;;
64938;SDS011;51453;47.738;7.420;2022-11-18T07:09:41;7.55;;;1.20;;
64938;SDS011;51453;47.738;7.420;2022-11-18T07:12:07;2.83;;;1.00;;
64938;SDS011;51453;47.738;7.420;2022-11-18T07:14:33;1.75;;;0.88;;
64938;SDS011;51453;47.738;7.420;2022-11-18T07:16:58;6.65;;;0.93;;
64938;SDS011;51453;47.738;7.420;2022-11-18T07:19:24;1.52;;;0.90;;
64938;SDS011;51453;47.738;7.420;2022-11-18T07:21:50;2.45;;;0.93;;
64938;SDS011;51453;47.738;7.420;2022-11-18T07:24:15;4.18;;;0.93;;
64938;SDS011;51453;47.738;7.420;2022-11-18T07:26:41;3.72;;;0.88;;
64938;SDS011;51453;47.738;7.420;2022-11-18T07:29:08;3.45;;;1.23;;
64938;SDS011;51453;47.738;7.420;2022-11-18T07:31:35;4.70;;;1.20;;
64938;SDS011;51453;47.738;7.420;2022-11-18T07:34:05;2.72;;;1.13;;
64938;SDS011;51453;47.738;7.420;2022-11-18T07:36:31;4.35;;;1.15;;
64938;SDS011;51453;47.738;7.420;2022-11-18T07:38:57;2.60;;;1.15;;
64938;SDS011;51453;47.738;7.420;2022-11-18T07:41:25;2.53;;;1.00;;
64938;SDS011;51453;47.738;7.420;2022-11-18T07:43:53;5.30;;;1.10;;
64938;SDS011;51453;47.738;7.420;2022-11-18T07:46:20;2.78;;;1.00;;
64938;SDS011;51453;47.738;7.420;2022-11-18T07:48:47;1.08;;;0.70;;
64938;SDS011;51453;47.738;7.420;2022-11-18T07:51:14;1.98;;;1.10;;
64938;SDS011;51453;47.738;7.420;2022-11-18T07:53:41;4.70;;;1.33;;
64938;SDS011;51453;47.738;7.420;2022-11-18T07:56:07;4.30;;;1.67;;
64938;SDS011;51453;47.738;7.420;2022-11-18T07:58:34;4.82;;;0.90;;
64938;SDS011;51453;47.738;7.420;2022-11-18T08:01:10;4.45;;;1.00;;
64938;SDS011;51453;47.738;7.420;2022-11-18T08:03:36;1.95;;;0.90;;
64938;SDS011;51453;47.738;7.420;2022-11-18T08:06:03;3.40;;;0.73;;
64938;SDS011;51453;47.738;7.420;2022-11-18T08:08:30;3.00;;;0.90;;
64938;SDS011;51453;47.738;7.420;2022-11-18T08:10:59;1.75;;;0.90;;
64938;SDS011;51453;47.738;7.420;2022-11-18T08:13:27;2.25;;;1.00;;
64938;SDS011;51453;47.738;7.420;2022-11-18T08:15:53;2.67;;;1.00;;
64938;SDS011;51453;47.738;7.420;2022-11-18T08:18:19;2.05;;;0.80;;
64938;SDS011;51453;47.738;7.420;2022-11-18T08:20:46;3.40;;;0.88;;
64938;SDS011;51453;47.738;7.420;2022-11-18T08:23:12;1.25;;;0.93;;
64938;SDS011;51453;47.738;7.420;2022-11-18T08:25:40;0.80;;;0.80;;
64938;SDS011;51453;47.738;7.420;2022-11-18T08:28:11;4.82;;;0.93;;
64938;SDS011;51453;47.738;7.420;2022-11-18T08:30:37;5.45;;;1.58;;
64938;SDS011;51453;47.738;7.420;2022-11-18T08:33:03;1.00;;;0.90;;
64938;SDS011;51453;47.738;7.420;2022-11-18T08:35:30;3.72;;;1.38;;
64938;SDS011;51453;47.738;7.420;2022-11-18T08:37:56;1.73;;;0.82;;
64938;SDS011;51453;47.738;7.420;2022-11-18T08:40:22;1.50;;;1.20;;
64938;SDS011;51453;47.738;7.420;2022-11-18T08:42:48;2.75;;;0.95;;
64938;SDS011;51453;47.738;7.420;2022-11-18T08:45:14;2.33;;;1.00;;
64938;SDS011;51453;47.738;7.420;2022-11-18T08:47:40;1.75;;;0.88;;
64938;SDS011;51453;47.738;7.420;2022-11-18T08:50:06;2.50;;;0.85;;
64938;SDS011;51453;47.738;7.420;2022-11-18T08:52:33;0.85;;;0.82;;
64938;SDS011;51453;47.738;7.420;2022-11-18T08:54:59;1.85;;;0.70;;
64938;SDS011;51453;47.738;7.420;2022-11-18T08:57:25;1.27;;;0.60;;
64938;SDS011;51453;47.738;7.420;2022-11-18T08:59:51;1.88;;;0.60;;
64938;SDS011;51453;47.738;7.420;2022-11-18T09:02:19;1.95;;;0.80;;
64938;SDS011;51453;47.738;7.420;2022-11-18T09:04:47;1.92;;;0.50;;
64938;SDS011;51453;47.738;7.420;2022-11-18T09:07:15;1.45;;;0.40;;
64938;SDS011;51453;47.738;7.420;2022-11-18T09:09:44;1.33;;;0.50;;
64938;SDS011;51453;47.738;7.420;2022-11-18T09:12:10;0.77;;;0.50;;
64938;SDS011;51453;47.738;7.420;2022-11-18T09:14:40;1.30;;;0.45;;
64938;SDS011;51453;47.738;7.420;2022-11-18T09:17:07;1.67;;;0.40;;
64938;SDS011;51453;47.738;7.420;2022-11-18T09:19:33;1.48;;;0.50;;
64938;SDS011;51453;47.738;7.420;2022-11-18T09:21:58;1.20;;;0.50;;
64938;SDS011;51453;47.738;7.420;2022-11-18T09:24:24;2.60;;;0.50;;
64938;SDS011;51453;47.738;7.420;2022-11-18T09:26:49;0.43;;;0.43;;
64938;SDS011;51453;47.738;7.420;2022-11-18T09:29:17;1.30;;;0.30;;
64938;SDS011;51453;47.738;7.420;2022-11-18T09:31:44;1.55;;;0.43;;
64938;SDS011;51453;47.738;7.420;2022-11-18T09:34:09;0.55;;;0.43;;
64938;SDS011;51453;47.738;7.420;2022-11-18T09:36:35;1.50;;;0.40;;
64938;SDS011;51453;47.738;7.420;2022-11-18T09:39:01;1.05;;;0.50;;
64938;SDS011;51453;47.738;7.420;2022-11-18T09:49:35;0.50;;;0.30;;
64938;SDS011;51453;47.738;7.420;2022-11-18T09:54:45;1.20;;;0.50;;
64938;SDS011;51453;47.738;7.420;2022-11-18T09:57:13;2.55;;;0.40;;
64938;SDS011;51453;47.738;7.420;2022-11-18T09:59:44;2.08;;;0.40;;
64938;SDS011;51453;47.738;7.420;2022-11-18T10:04:58;1.02;;;0.57;;
64938;SDS011;51453;47.738;7.420;2022-11-18T10:07:39;1.95;;;0.40;;
64938;SDS011;51453;47.738;7.420;2022-11-18T10:10:15;0.93;;;0.40;;
64938;SDS011;51453;47.738;7.420;2022-11-18T10:13:17;1.02;;;0.40;;
64938;SDS011;51453;47.738;7.420;2022-11-18T10:15:52;1.33;;;0.40;;
64938;SDS011;51453;47.738;7.420;2022-11-18T10:18:41;1.70;;;0.60;;
64938;SDS011;51453;47.738;7.420;2022-11-18T10:24:07;2.47;;;0.50;;
64938;SDS011;51453;47.738;7.420;2022-11-18T10:26:40;0.75;;;0.40;;
64938;SDS011;51453;47.738;7.420;2022-11-18T10:29:06;1.60;;;0.50;;
64938;SDS011;51453;47.738;7.420;2022-11-18T10:31:51;1.25;;;0.50;;
64938;SDS011;51453;47.738;7.420;2022-11-18T10:34:29;0.93;;;0.38;;
64938;SDS011;51453;47.738;7.420;2022-11-18T10:36:57;1.35;;;0.40;;
64938;SDS011;51453;47.738;7.420;2022-11-18T10:39:29;0.52;;;0.40;;
64938;SDS011;51453;47.738;7.420;2022-11-18T10:41:59;0.43;;;0.40;;
64938;SDS011;51453;47.738;7.420;2022-11-18T10:47:15;0.65;;;0.30;;
64938;SDS011;51453;47.738;7.420;2022-11-18T10:49:41;1.05;;;0.20;;
64938;SDS011;51453;47.738;7.420;2022-11-18T10:52:11;0.93;;;0.40;;
64938;SDS011;51453;47.738;7.420;2022-11-18T10:54:38;1.45;;;0.50;;
64938;SDS011;51453;47.738;7.420;2022-11-18T10:57:05;0.65;;;0.30;;
64938;SDS011;51453;47.738;7.420;2022-11-18T10:59:32;3.20;;;0.40;;
64938;SDS011;51453;47.738;7.420;2022-11-18T11:05:00;0.52;;;0.20;;
64938;SDS011;51453;47.738;7.420;2022-11-18T11:07:31;1.20;;;0.20;;
64938;SDS011;51453;47.738;7.420;2022-11-18T11:15:15;2.10;;;0.40;;
64938;SDS011;51453;47.738;7.420;2022-11-18T11:17:55;1.92;;;0.40;;
64938;SDS011;51453;47.738;7.420;2022-11-18T11:20:43;0.80;;;0.50;;
64938;SDS011;51453;47.738;7.420;2022-11-18T11:23:09;1.23;;;0.47;;
64938;SDS011;51453;47.738;7.420;2022-11-18T11:25:42;0.40;;;0.40;;
64938;SDS011;51453;47.738;7.420;2022-11-18T11:28:24;1.88;;;0.60;;
64938;SDS011;51453;47.738;7.420;2022-11-18T11:31:09;3.30;;;0.52;;
64938;SDS011;51453;47.738;7.420;2022-11-18T11:41:44;3.53;;;0.68;;
64938;SDS011;51453;47.738;7.420;2022-11-18T11:44:22;3.95;;;0.90;;
64938;SDS011;51453;47.738;7.420;2022-11-18T12:06:51;2.90;;;0.90;;
64938;SDS011;51453;47.738;7.420;2022-11-18T12:09:35;2.60;;;0.57;;
64938;SDS011;51453;47.738;7.420;2022-11-18T12:17:42;6.30;;;1.38;;
64938;SDS011;51453;47.738;7.420;2022-11-18T12:20:39;7.00;;;0.63;;
64938;SDS011;51453;47.738;7.420;2022-11-18T12:31:38;4.40;;;0.60;;
64938;SDS011;51453;47.738;7.420;2022-11-18T12:33:44;5.85;;;0.88;;
64938;SDS011;51453;47.738;7.420;2022-11-18T12:44:48;4.45;;;0.90;;
64938;SDS011;51453;47.738;7.420;2022-11-18T12:47:16;6.82;;;1.00;;
64938;SDS011;51453;47.738;7.420;2022-11-18T12:55:02;2.92;;;0.70;;
64938;SDS011;51453;47.738;7.420;2022-11-18T12:57:38;3.17;;;0.80;;
64938;SDS011;51453;47.738;7.420;2022-11-18T13:00:26;6.22;;;0.77;;
64938;SDS011;51453;47.738;7.420;2022-11-18T13:02:55;5.72;;;1.00;;
64938;SDS011;51453;47.738;7.420;2022-11-18T13:05:32;4.50;;;0.88;;
64938;SDS011;51453;47.738;7.420;2022-11-18T13:08:03;4.55;;;0.68;;
64938;SDS011;51453;47.738;7.420;2022-11-18T13:10:47;5.43;;;0.80;;
64938;SDS011;51453;47.738;7.420;2022-11-18T13:13:38;2.90;;;1.10;;
64938;SDS011;51453;47.738;7.420;2022-11-18T13:16:24;4.40;;;0.60;;
64938;SDS011;51453;47.738;7.420;2022-11-18T13:19:09;4.75;;;0.80;;
64938;SDS011;51453;47.738;7.420;2022-11-18T13:21:51;3.05;;;0.73;;
64938;SDS011;51453;47.738;7.420;2022-11-18T13:24:42;4.47;;;1.05;;
64938;SDS011;51453;47.738;7.420;2022-11-18T13:27:12;5.00;;;0.80;;
64938;SDS011;51453;47.738;7.420;2022-11-18T13:30:00;8.52;;;1.05;;
64938;SDS011;51453;47.738;7.420;2022-11-18T13:32:30;3.97;;;0.60;;
64938;SDS011;51453;47.738;7.420;2022-11-18T13:34:57;5.07;;;1.00;;
64938;SDS011;51453;47.738;7.420;2022-11-18T13:37:47;3.55;;;0.73;;
64938;SDS011;51453;47.738;7.420;2022-11-18T13:40:37;4.25;;;0.80;;
64938;SDS011;51453;47.738;7.420;2022-11-18T13:43:29;6.85;;;1.05;;
64938;SDS011;51453;47.738;7.420;2022-11-18T13:45:57;3.72;;;0.60;;
64938;SDS011;51453;47.738;7.420;2022-11-18T13:48:24;4.82;;;0.60;;
64938;SDS011;51453;47.738;7.420;2022-11-18T13:50:52;4.88;;;0.70;;
64938;SDS011;51453;47.738;7.420;2022-11-18T13:58:40;5.25;;;0.63;;
64938;SDS011;51453;47.738;7.420;2022-11-18T14:03:56;5.88;;;1.13;;
64938;SDS011;51453;47.738;7.420;2022-11-18T14:11:36;3.53;;;0.73;;
64938;SDS011;51453;47.738;7.420;2022-11-18T14:14:03;3.05;;;0.70;;
64938;SDS011;51453;47.738;7.420;2022-11-18T14:18:59;4.43;;;0.83;;
64938;SDS011;51453;47.738;7.420;2022-11-18T14:21:26;5.18;;;0.82;;
64938;SDS011;51453;47.738;7.420;2022-11-18T14:23:53;2.13;;;0.85;;
64938;SDS011;51453;47.738;7.420;2022-11-18T14:26:33;3.63;;;0.80;;
64938;SDS011;51453;47.738;7.420;2022-11-18T14:31:44;4.57;;;1.05;;
64938;SDS011;51453;47.738;7.420;2022-11-18T14:34:26;6.38;;;0.90;;
64938;SDS011;51453;47.738;7.420;2022-11-18T14:36:54;2.33;;;0.70;;
64938;SDS011;51453;47.738;7.420;2022-11-18T14:39:24;6.10;;;1.08;;
64938;SDS011;51453;47.738;7.420;2022-11-18T14:41:55;7.90;;;0.90;;
64938;SDS011;51453;47.738;7.420;2022-11-18T14:44:23;5.15;;;0.77;;
64938;SDS011;51453;47.738;7.420;2022-11-18T14:46:51;5.40;;;0.88;;
64938;SDS011;51453;47.738;7.420;2022-11-18T14:49:26;5.93;;;1.00;;
64938;SDS011;51453;47.738;7.420;2022-11-18T14:51:55;3.78;;;1.00;;
64938;SDS011;51453;47.738;7.420;2022-11-18T14:54:21;7.28;;;1.10;;
64938;SDS011;51453;47.738;7.420;2022-11-18T14:56:51;7.35;;;1.55;;
64938;SDS011;51453;47.738;7.420;2022-11-18T14:59:37;4.72;;;1.00;;
64938;SDS011;51453;47.738;7.420;2022-11-18T15:02:03;3.72;;;1.05;;
64938;SDS011;51453;47.738;7.420;2022-11-18T15:04:29;4.47;;;0.90;;
64938;SDS011;51453;47.738;7.420;2022-11-18T15:06:54;4.75;;;1.20;;
64938;SDS011;51453;47.738;7.420;2022-11-18T15:09:20;5.47;;;1.10;;
64938;SDS011;51453;47.738;7.420;2022-11-18T15:11:46;8.18;;;0.88;;
64938;SDS011;51453;47.738;7.420;2022-11-18T15:14:11;4.65;;;0.98;;
64938;SDS011;51453;47.738;7.420;2022-11-18T15:16:37;3.55;;;0.80;;
64938;SDS011;51453;47.738;7.420;2022-11-18T15:19:03;6.90;;;1.00;;
64938;SDS011;51453;47.738;7.420;2022-11-18T15:21:30;6.63;;;1.83;;
64938;SDS011;51453;47.738;7.420;2022-11-18T15:23:56;5.35;;;1.73;;
64938;SDS011;51453;47.738;7.420;2022-11-18T15:28:49;10.60;;;1.65;;
64938;SDS011;51453;47.738;7.420;2022-11-18T15:31:17;4.85;;;1.20;;
64938;SDS011;51453;47.738;7.420;2022-11-18T15:33:43;5.35;;;0.88;;
64938;SDS011;51453;47.738;7.420;2022-11-18T15:36:12;3.78;;;1.30;;
64938;SDS011;51453;47.738;7.420;2022-11-18T15:41:26;10.07;;;1.23;;
64938;SDS011;51453;47.738;7.420;2022-11-18T15:43:54;8.45;;;1.73;;
64938;SDS011;51453;47.738;7.420;2022-11-18T15:46:21;6.32;;;1.25;;
64938;SDS011;51453;47.738;7.420;2022-11-18T15:48:52;6.75;;;1.33;;
64938;SDS011;51453;47.738;7.420;2022-11-18T15:51:19;7.05;;;1.20;;
64938;SDS011;51453;47.738;7.420;2022-11-18T15:53:46;3.80;;;1.48;;
64938;SDS011;51453;47.738;7.420;2022-11-18T15:58:43;6.80;;;1.42;;
64938;SDS011;51453;47.738;7.420;2022-11-18T16:01:09;3.38;;;1.13;;
64938;SDS011;51453;47.738;7.420;2022-11-18T16:03:35;6.03;;;1.52;;
64938;SDS011;51453;47.738;7.420;2022-11-18T16:06:01;8.75;;;1.55;;
64938;SDS011;51453;47.738;7.420;2022-11-18T16:08:28;5.70;;;1.50;;
64938;SDS011;51453;47.738;7.420;2022-11-18T16:10:55;8.23;;;1.42;;
64938;SDS011;51453;47.738;7.420;2022-11-18T16:13:40;7.63;;;1.60;;
64938;SDS011;51453;47.738;7.420;2022-11-18T16:16:06;6.50;;;1.63;;
64938;SDS011;51453;47.738;7.420;2022-11-18T16:18:32;10.13;;;1.98;;
64938;SDS011;51453;47.738;7.420;2022-11-18T16:20:58;5.68;;;2.03;;
64938;SDS011;51453;47.738;7.420;2022-11-18T16:23:24;10.82;;;1.52;;
64938;SDS011;51453;47.738;7.420;2022-11-18T16:25:52;7.80;;;1.90;;
64938;SDS011;51453;47.738;7.420;2022-11-18T16:28:18;7.95;;;2.05;;
64938;SDS011;51453;47.738;7.420;2022-11-18T16:30:49;7.78;;;1.73;;
64938;SDS011;51453;47.738;7.420;2022-11-18T16:33:34;3.90;;;1.33;;
64938;SDS011;51453;47.738;7.420;2022-11-18T16:35:59;5.53;;;1.55;;
64938;SDS011;51453;47.738;7.420;2022-11-18T16:38:25;7.30;;;1.60;;
64938;SDS011;51453;47.738;7.420;2022-11-18T16:40:57;6.95;;;1.90;;
64938;SDS011;51453;47.738;7.420;2022-11-18T16:43:23;5.22;;;1.65;;
64938;SDS011;51453;47.738;7.420;2022-11-18T16:45:50;6.22;;;2.08;;
64938;SDS011;51453;47.738;7.420;2022-11-18T16:48:17;7.85;;;2.40;;
64938;SDS011;51453;47.738;7.420;2022-11-18T16:50:43;6.78;;;2.58;;
64938;SDS011;51453;47.738;7.420;2022-11-18T16:53:09;5.95;;;2.30;;
64938;SDS011;51453;47.738;7.420;2022-11-18T16:55:34;6.82;;;2.80;;
64938;SDS011;51453;47.738;7.420;2022-11-18T16:58:00;10.15;;;3.42;;
64938;SDS011;51453;47.738;7.420;2022-11-18T17:00:25;10.68;;;4.30;;
64938;SDS011;51453;47.738;7.420;2022-11-18T17:02:51;8.68;;;4.20;;
64938;SDS011;51453;47.738;7.420;2022-11-18T17:05:17;10.63;;;4.22;;
64938;SDS011;51453;47.738;7.420;2022-11-18T17:07:42;5.80;;;1.67;;
64938;SDS011;51453;47.738;7.420;2022-11-18T17:10:08;4.05;;;1.45;;
64938;SDS011;51453;47.738;7.420;2022-11-18T17:12:46;6.55;;;1.38;;
64938;SDS011;51453;47.738;7.420;2022-11-18T17:15:13;6.78;;;1.63;;
64938;SDS011;51453;47.738;7.420;2022-11-18T17:17:39;5.65;;;1.30;;
64938;SDS011;51453;47.738;7.420;2022-11-18T17:20:05;5.78;;;1.40;;
64938;SDS011;51453;47.738;7.420;2022-11-18T17:22:30;5.82;;;1.58;;
64938;SDS011;51453;47.738;7.420;2022-11-18T17:24:56;6.05;;;1.50;;
64938;SDS011;51453;47.738;7.420;2022-11-18T17:27:22;4.95;;;1.75;;
64938;SDS011;51453;47.738;7.420;2022-11-18T17:29:47;3.67;;;1.70;;
64938;SDS011;51453;47.738;7.420;2022-11-18T17:32:15;6.60;;;1.90;;